createdAt,value
2023-05-14T00:03:32.398Z,101250.69
2023-05-14T00:08:33.787Z,101257.34
2023-05-14T00:13:35.627Z,101248.88
2023-05-14T00:18:37.030Z,101240.59
2023-05-14T00:23:38.516Z,101244.03
2023-05-14T00:28:39.795Z,101240.75
2023-05-14T00:33:41.362Z,101242.19
2023-05-14T00:38:42.692Z,101236.50
2023-05-14T00:43:44.007Z,101234.09
2023-05-14T00:48:45.613Z,101228.72
2023-05-14T00:53:47.324Z,101234.56
2023-05-14T00:58:48.653Z,101236.53
2023-05-14T01:03:50.190Z,101231.97
2023-05-14T01:09:00.800Z,101235.38
2023-05-14T01:14:15.947Z,101244.47
2023-05-14T01:19:21.655Z,101238.00
2023-05-14T01:24:22.960Z,101226.75
2023-05-14T01:29:26.641Z,101232.91
2023-05-14T01:34:29.971Z,101223.81
2023-05-14T01:39:32.460Z,101230.63
2023-05-14T01:44:33.764Z,101232.13
2023-05-14T01:49:37.095Z,101228.66
2023-05-14T01:54:38.389Z,101234.00
2023-05-14T01:59:39.791Z,101226.03
2023-05-14T02:04:41.108Z,101224.41
2023-05-14T02:09:42.417Z,101224.84
2023-05-14T02:14:43.719Z,101227.44
2023-05-14T02:19:45.026Z,101219.47
2023-05-14T02:24:46.374Z,101224.66
2023-05-14T02:29:47.680Z,101221.13
2023-05-14T02:34:48.990Z,101218.22
2023-05-14T02:39:50.283Z,101208.84
2023-05-14T02:44:52.341Z,101204.94
2023-05-14T02:49:53.681Z,101200.75
2023-05-14T02:54:54.994Z,101190.69
2023-05-14T02:59:56.285Z,101190.66
2023-05-14T03:04:57.892Z,101185.47
2023-05-14T03:10:00.398Z,101186.44
2023-05-14T03:15:01.752Z,101179.13
2023-05-14T03:20:03.575Z,101175.03
2023-05-14T03:25:05.083Z,101176.97
2023-05-14T03:30:06.714Z,101179.94
2023-05-14T03:35:08.288Z,101184.31
2023-05-14T03:40:09.753Z,101174.91
2023-05-14T03:45:11.393Z,101178.63
2023-05-14T03:50:12.739Z,101180.88
2023-05-14T03:55:14.038Z,101184.16
2023-05-14T04:00:15.754Z,101186.84
2023-05-14T04:05:17.072Z,101187.66
2023-05-14T04:10:18.409Z,101184.75
2023-05-14T04:15:19.742Z,101187.03
2023-05-14T04:20:21.154Z,101196.16
2023-05-14T04:25:22.518Z,101188.69
2023-05-14T04:30:24.222Z,101193.56
2023-05-14T04:35:25.767Z,101198.47
2023-05-14T04:40:27.492Z,101200.91
2023-05-14T04:45:28.869Z,101201.38
2023-05-14T04:50:30.171Z,101198.13
2023-05-14T04:55:31.466Z,101204.63
2023-05-14T05:00:33.535Z,101192.91
2023-05-14T05:05:35.444Z,101205.28
2023-05-14T05:10:36.776Z,101210.00
2023-05-14T05:15:38.100Z,101205.25
2023-05-14T05:20:39.424Z,101205.91
2023-05-14T05:25:41.085Z,101201.03
2023-05-14T05:30:44.981Z,101208.09
2023-05-14T05:35:46.320Z,101205.84
2023-05-14T05:40:48.201Z,101205.38
2023-05-14T05:45:49.504Z,101201.69
2023-05-14T05:50:51.461Z,101205.50
2023-05-14T05:55:52.801Z,101200.50
2023-05-14T06:00:55.007Z,101201.78
2023-05-14T06:05:56.305Z,101196.50
2023-05-14T06:10:57.623Z,101205.00
2023-05-14T06:15:58.949Z,101202.28
2023-05-14T06:21:00.345Z,101202.47
2023-05-14T06:26:01.760Z,101197.81
2023-05-14T06:31:03.132Z,101193.31
2023-05-14T06:36:05.301Z,101196.72
2023-05-14T06:41:06.689Z,101191.66
2023-05-14T06:46:07.991Z,101187.34
2023-05-14T06:51:10.878Z,101184.31
2023-05-14T06:56:13.561Z,101183.22
2023-05-14T07:01:14.875Z,101175.53
2023-05-14T07:06:16.221Z,101178.13
2023-05-14T07:11:17.611Z,101177.97
2023-05-14T07:16:18.977Z,101176.09
2023-05-14T07:21:20.288Z,101160.59
2023-05-14T07:26:24.275Z,101162.69
2023-05-14T07:31:25.720Z,101153.78
2023-05-14T07:36:27.340Z,101161.00
2023-05-14T07:41:28.678Z,101147.38
2023-05-14T07:46:29.972Z,101141.63
2023-05-14T07:51:31.702Z,101143.63
2023-05-14T07:56:33.078Z,101134.41
2023-05-14T08:01:34.393Z,101132.38
2023-05-14T08:06:35.844Z,101127.94
2023-05-14T08:11:37.148Z,101122.31
2023-05-14T08:16:38.844Z,101125.22
2023-05-14T08:21:40.189Z,101121.63
2023-05-14T08:26:41.920Z,101114.94
2023-05-14T08:31:43.718Z,101107.34
2023-05-14T08:36:45.028Z,101107.41
2023-05-14T08:41:46.509Z,101103.41
2023-05-14T08:46:49.756Z,101099.59
2023-05-14T08:51:51.259Z,101100.13
2023-05-14T08:56:53.297Z,101092.47
2023-05-14T09:01:56.103Z,101094.50
2023-05-14T09:06:59.805Z,101081.91
2023-05-14T09:12:01.227Z,101078.34
2023-05-14T09:17:03.313Z,101080.16
2023-05-14T09:22:08.590Z,101077.94
2023-05-14T09:27:15.368Z,101074.59
2023-05-14T09:32:16.741Z,101068.94
2023-05-14T09:37:18.030Z,101064.19
2023-05-14T09:42:19.996Z,101070.06
2023-05-14T09:47:22.228Z,101065.22
2023-05-14T09:52:24.344Z,101062.22
2023-05-14T09:57:26.857Z,101049.09
2023-05-14T10:02:37.650Z,101047.03
2023-05-14T10:07:42.179Z,101039.25
2023-05-14T10:12:46.268Z,101018.97
2023-05-14T10:17:51.712Z,101012.72
2023-05-14T10:22:53.262Z,101005.25
2023-05-14T10:27:54.968Z,101009.31
2023-05-14T10:33:06.012Z,101003.53
2023-05-14T10:38:10.161Z,101004.38
2023-05-14T10:43:11.601Z,100999.19
2023-05-14T10:48:13.059Z,100995.72
2023-05-14T10:53:15.135Z,101004.00
2023-05-14T10:58:16.440Z,100997.75
2023-05-14T11:03:18.226Z,100986.09
2023-05-14T11:08:20.061Z,100982.16
2023-05-14T11:13:21.682Z,100981.13
2023-05-14T11:18:29.697Z,100967.53
2023-05-14T11:23:31.090Z,100960.78
2023-05-14T11:28:32.540Z,100954.94
2023-05-14T11:33:33.930Z,100946.19
2023-05-14T11:38:45.496Z,100944.94
2023-05-14T11:43:47.597Z,100934.06
2023-05-14T11:48:49.073Z,100926.03
2023-05-14T11:53:50.424Z,100926.72
2023-05-14T11:59:00.761Z,100921.69
2023-05-14T12:04:03.877Z,100919.31
2023-05-14T12:09:05.798Z,100909.88
2023-05-14T12:14:25.412Z,100908.63
2023-05-14T12:19:26.839Z,100900.81
2023-05-14T12:24:29.154Z,100893.03
2023-05-14T12:29:30.570Z,100887.16
2023-05-14T12:34:31.962Z,100887.06
2023-05-14T12:39:34.189Z,100879.53
2023-05-14T12:44:35.635Z,100874.16
2023-05-14T12:49:36.931Z,100867.78
2023-05-14T12:54:41.693Z,100864.84
2023-05-14T12:59:44.168Z,100858.28
2023-05-14T13:04:45.704Z,100862.84
2023-05-14T13:09:47.011Z,100862.25
2023-05-14T13:14:48.323Z,100855.13
2023-05-14T13:19:49.616Z,100844.19
2023-05-14T13:24:51.004Z,100840.25
2023-05-14T13:29:52.757Z,100838.38
2023-05-14T13:34:54.123Z,100828.25
2023-05-14T13:39:55.440Z,100821.88
2023-05-14T13:44:59.699Z,100815.97
2023-05-14T13:50:01.030Z,100811.66
2023-05-14T13:55:02.410Z,100793.00
2023-05-14T14:00:05.212Z,100791.81
2023-05-14T14:05:06.860Z,100769.59
2023-05-14T14:10:09.525Z,100781.66
2023-05-14T14:15:11.149Z,100768.31
2023-05-14T14:20:13.323Z,100770.06
2023-05-14T14:25:14.680Z,100761.19
2023-05-14T14:30:15.963Z,100759.53
2023-05-14T14:35:18.267Z,100760.66
2023-05-14T14:40:19.770Z,100756.09
2023-05-14T14:45:21.332Z,100753.69
2023-05-14T14:50:22.722Z,100749.47
2023-05-14T14:55:24.154Z,100747.06
2023-05-14T15:00:26.108Z,100735.53
2023-05-14T15:05:27.408Z,100732.56
2023-05-14T15:10:28.869Z,100734.16
2023-05-14T15:15:30.376Z,100732.16
2023-05-14T15:20:31.812Z,100728.66
2023-05-14T15:25:33.159Z,100725.25
2023-05-14T15:30:34.720Z,100724.72
2023-05-14T15:35:36.565Z,100712.75
2023-05-14T15:40:37.912Z,100714.06
2023-05-14T15:45:39.222Z,100709.00
2023-05-14T15:50:40.548Z,100706.13
2023-05-14T15:55:41.851Z,100698.66
2023-05-14T16:00:43.148Z,100699.44
2023-05-14T16:05:45.002Z,100708.03
2023-05-14T16:10:46.311Z,100705.09
2023-05-14T16:15:48.174Z,100705.09
2023-05-14T16:20:49.532Z,100701.91
2023-05-14T16:25:52.748Z,100698.97
2023-05-14T16:30:54.056Z,100695.81
2023-05-14T16:35:55.453Z,100701.13
2023-05-14T16:40:56.737Z,100696.84
2023-05-14T16:45:58.058Z,100701.63
2023-05-14T16:50:59.514Z,100702.13
2023-05-14T16:56:01.131Z,100703.09
2023-05-14T17:01:02.526Z,100706.75
2023-05-14T17:06:04.674Z,100701.88
2023-05-14T17:11:06.194Z,100695.97
2023-05-14T17:16:07.633Z,100689.56
2023-05-14T17:21:08.981Z,100698.97
2023-05-14T17:26:12.012Z,100700.50
2023-05-14T17:31:13.427Z,100699.91
2023-05-14T17:36:14.856Z,100695.69
2023-05-14T17:41:16.172Z,100703.63
2023-05-14T17:46:17.502Z,100705.44
2023-05-14T17:51:18.862Z,100711.22
2023-05-14T17:56:20.316Z,100719.00
2023-05-14T18:01:21.790Z,100722.19
2023-05-14T18:06:23.874Z,100731.22
2023-05-14T18:11:25.948Z,100732.94
2023-05-14T18:16:27.588Z,100740.63
2023-05-14T18:21:28.927Z,100744.31
2023-05-14T18:26:32.191Z,100751.25
2023-05-14T18:31:35.116Z,100750.53
2023-05-14T18:36:36.568Z,100743.31
2023-05-14T18:41:37.872Z,100752.44
2023-05-14T18:46:39.379Z,100754.94
2023-05-14T18:51:40.846Z,100763.66
2023-05-14T18:56:46.774Z,100766.22
2023-05-14T19:01:48.965Z,100770.50
2023-05-14T19:06:50.338Z,100769.00
2023-05-14T19:11:51.708Z,100776.63
2023-05-14T19:16:53.169Z,100790.91
2023-05-14T19:21:54.516Z,100803.31
2023-05-14T19:26:55.857Z,100814.88
2023-05-14T19:31:57.208Z,100815.88
2023-05-14T19:36:58.678Z,100814.81
2023-05-14T19:42:00.067Z,100822.16
2023-05-14T19:47:01.454Z,100823.41
2023-05-14T19:52:02.978Z,100832.75
2023-05-14T19:57:04.449Z,100830.16
2023-05-14T20:02:05.834Z,100829.72
2023-05-14T20:07:08.281Z,100836.09
2023-05-14T20:12:09.663Z,100840.41
2023-05-14T20:17:11.040Z,100841.69
2023-05-14T20:22:12.789Z,100834.09
2023-05-14T20:27:14.199Z,100825.03
2023-05-14T20:32:15.573Z,100826.34
2023-05-14T20:37:18.249Z,100815.84
2023-05-14T20:42:19.608Z,100812.59
2023-05-14T20:47:24.133Z,100807.00
2023-05-14T20:52:25.567Z,100806.03
2023-05-14T20:57:27.785Z,100815.78
2023-05-14T21:02:29.265Z,100816.97
2023-05-14T21:07:31.676Z,100807.75
2023-05-14T21:12:33.060Z,100797.47
2023-05-14T21:17:34.401Z,100800.72
2023-05-14T21:22:35.704Z,100800.75
2023-05-14T21:27:37.178Z,100801.75
2023-05-14T21:32:38.609Z,100799.31
2023-05-14T21:37:40.466Z,100795.88
2023-05-14T21:42:41.833Z,100798.88
2023-05-14T21:47:43.206Z,100796.88
2023-05-14T21:52:44.541Z,100793.81
2023-05-14T21:57:45.877Z,100799.66
2023-05-14T22:02:47.199Z,100802.25
2023-05-14T22:07:48.738Z,100794.56
2023-05-14T22:12:50.071Z,100800.38
2023-05-14T22:17:51.397Z,100806.78
2023-05-14T22:22:52.743Z,100803.13
2023-05-14T22:27:54.193Z,100802.28
2023-05-14T22:32:55.543Z,100802.59
2023-05-14T22:37:56.858Z,100803.75
2023-05-14T22:42:58.185Z,100798.44
2023-05-14T22:47:59.542Z,100801.69
2023-05-14T22:53:00.975Z,100798.47
2023-05-14T22:58:02.359Z,100787.19
2023-05-14T23:03:03.767Z,100782.84
2023-05-14T23:08:05.221Z,100788.19
2023-05-14T23:13:06.534Z,100790.00
2023-05-14T23:18:08.091Z,100780.94
2023-05-14T23:23:09.520Z,100773.44
2023-05-14T23:28:10.839Z,100779.56
2023-05-14T23:33:12.165Z,100774.50
2023-05-14T23:38:13.559Z,100771.81
2023-05-14T23:43:15.057Z,100771.81
2023-05-14T23:48:16.393Z,100762.00
2023-05-14T23:53:17.945Z,100758.41
2023-05-14T23:58:19.257Z,100766.97
